Terminal Aerodrome Forecast
Issued by NWS Upton, NY

Home | Current Version | Previous Version | Text Only | Print | Product List | Glossary On
Versions: 1 2 3 4 5 6 7 8 9 10 11 12 13 14 15 16 17 18 19 20 21 22 23 24 25 26
719
FTUS41 KOKX 130831 AAA
TAFLGA
TAF AMD
KLGA 130831Z 1309/1406 26012KT P6SM BKN070
     FM131100 29015G21KT P6SM BKN040
     FM131300 30018G29KT P6SM BKN070
     FM131500 31022G35KT P6SM BKN100
     FM132300 31021G36KT P6SM SCT100=

USA.gov is the U.S. government's official web portal to all federal, state and local government web resources and services.